createdAt,value
2022-10-11T00:02:23.768Z,6.60
2022-10-11T00:04:52.566Z,5.70
2022-10-11T00:07:19.933Z,6.40
2022-10-11T00:09:47.254Z,6.00
2022-10-11T00:12:14.727Z,7.00
2022-10-11T00:14:42.185Z,6.80
2022-10-11T00:17:09.738Z,5.70
2022-10-11T00:19:36.884Z,6.40
2022-10-11T00:22:03.962Z,5.80
2022-10-11T00:24:31.290Z,6.10
2022-10-11T00:26:58.467Z,6.40
2022-10-11T00:29:25.536Z,7.20
2022-10-11T00:31:52.828Z,6.40
2022-10-11T00:34:20.207Z,5.90
2022-10-11T00:36:47.461Z,6.40
2022-10-11T00:39:14.715Z,6.30
2022-10-11T00:41:42.733Z,6.90
2022-10-11T00:44:14.775Z,7.10
2022-10-11T00:46:45.729Z,6.40
2022-10-11T00:49:20.033Z,6.70
2022-10-11T00:51:56.582Z,7.30
2022-10-11T00:54:26.255Z,6.60
2022-10-11T00:56:57.522Z,6.90
2022-10-11T00:59:28.520Z,6.70
2022-10-11T01:01:55.993Z,6.90
2022-10-11T01:04:23.908Z,6.90
2022-10-11T01:06:51.152Z,6.80
2022-10-11T01:09:19.744Z,7.70
2022-10-11T01:11:47.855Z,7.10
2022-10-11T01:14:20.989Z,7.60
2022-10-11T01:17:05.738Z,7.50
2022-10-11T01:20:03.902Z,7.00
2022-10-11T01:22:39.852Z,7.10
2022-10-11T01:25:25.644Z,7.90
2022-10-11T01:28:04.058Z,7.60
2022-10-11T01:30:34.067Z,6.90
2022-10-11T01:33:19.419Z,7.40
2022-10-11T01:36:05.318Z,7.60
2022-10-11T01:38:45.224Z,7.50
2022-10-11T01:41:38.444Z,7.40
2022-10-11T01:44:07.549Z,7.60
2022-10-11T01:46:35.070Z,7.10
2022-10-11T01:49:03.552Z,7.70
2022-10-11T01:51:34.819Z,6.60
2022-10-11T01:54:20.597Z,6.60
2022-10-11T01:57:01.539Z,7.70
2022-10-11T01:59:50.484Z,7.70
2022-10-11T02:02:27.650Z,7.70
2022-10-11T02:05:01.248Z,7.20
2022-10-11T02:07:42.506Z,7.30
2022-10-11T02:10:22.058Z,6.90
2022-10-11T02:12:56.775Z,6.30
2022-10-11T02:15:24.245Z,7.00
2022-10-11T02:17:55.945Z,6.70
2022-10-11T02:20:25.715Z,6.40
2022-10-11T02:23:16.381Z,6.40
2022-10-11T02:25:46.018Z,6.40
2022-10-11T02:28:19.347Z,7.60
2022-10-11T02:30:48.397Z,6.00
2022-10-11T02:33:19.517Z,5.60
2022-10-11T02:35:50.109Z,6.80
2022-10-11T02:38:21.934Z,7.30
2022-10-11T02:40:55.885Z,6.60
2022-10-11T02:43:47.796Z,7.00
2022-10-11T02:46:17.656Z,6.70
2022-10-11T02:48:45.159Z,6.00
2022-10-11T02:51:14.404Z,5.50
2022-10-11T02:53:41.595Z,5.40
2022-10-11T02:56:09.110Z,5.90
2022-10-11T02:58:36.250Z,4.00
2022-10-11T03:01:03.453Z,5.20
2022-10-11T03:03:30.617Z,5.50
2022-10-11T03:06:02.124Z,5.70
2022-10-11T03:08:29.904Z,4.90
2022-10-11T03:10:57.279Z,5.40
2022-10-11T03:13:24.538Z,5.20
2022-10-11T03:16:02.898Z,5.00
2022-10-11T03:18:31.042Z,4.80
2022-10-11T03:20:58.267Z,5.00
2022-10-11T03:23:25.608Z,4.20
2022-10-11T03:25:53.173Z,5.50
2022-10-11T03:28:21.118Z,5.20
2022-10-11T03:30:51.723Z,4.90
2022-10-11T03:33:19.619Z,4.70
2022-10-11T03:35:47.915Z,5.80
2022-10-11T03:38:18.355Z,5.20
2022-10-11T03:40:46.120Z,5.50
2022-10-11T03:43:13.468Z,5.60
2022-10-11T03:45:42.661Z,5.40
2022-10-11T03:48:10.526Z,4.60
2022-10-11T03:50:38.610Z,4.40
2022-10-11T03:53:07.515Z,5.00
2022-10-11T03:55:34.758Z,5.40
2022-10-11T03:58:02.217Z,5.60
2022-10-11T04:00:29.448Z,5.00
2022-10-11T04:02:56.805Z,5.10
2022-10-11T04:05:24.171Z,5.50
2022-10-11T04:07:51.617Z,4.20
2022-10-11T04:10:19.088Z,5.00
2022-10-11T04:12:46.727Z,5.30
2022-10-11T04:15:14.024Z,5.60
2022-10-11T04:17:41.637Z,4.90
2022-10-11T04:20:10.053Z,5.10
2022-10-11T04:22:38.693Z,5.00
2022-10-11T04:25:07.746Z,4.80
2022-10-11T04:27:35.055Z,4.90
2022-10-11T04:30:02.269Z,5.60
2022-10-11T04:32:29.480Z,5.80
2022-10-11T04:34:56.604Z,5.20
2022-10-11T04:37:26.204Z,5.10
2022-10-11T04:39:53.368Z,5.30
2022-10-11T04:42:21.748Z,5.70
2022-10-11T04:44:49.011Z,6.00
2022-10-11T04:47:16.248Z,4.80
2022-10-11T04:49:43.508Z,5.10
2022-10-11T04:52:10.745Z,5.50
2022-10-11T04:54:37.909Z,5.40
2022-10-11T04:57:05.368Z,5.50
2022-10-11T04:59:32.828Z,5.40
2022-10-11T05:02:00.241Z,5.20
2022-10-11T05:04:28.247Z,6.00
2022-10-11T05:06:56.094Z,5.60
2022-10-11T05:09:23.569Z,5.10
2022-10-11T05:11:50.692Z,5.10
2022-10-11T05:14:17.952Z,5.70
2022-10-11T05:16:46.232Z,5.30
2022-10-11T05:19:13.446Z,5.60
2022-10-11T05:21:40.666Z,6.70
2022-10-11T05:24:08.226Z,6.20
2022-10-11T05:26:35.759Z,5.40
2022-10-11T05:29:03.035Z,5.00
2022-10-11T05:31:30.774Z,5.40
2022-10-11T05:33:57.924Z,5.10
2022-10-11T05:36:25.198Z,4.90
2022-10-11T05:38:52.430Z,5.30
2022-10-11T05:41:19.905Z,5.00
2022-10-11T05:43:47.667Z,5.20
2022-10-11T05:46:15.533Z,4.90
2022-10-11T05:48:43.291Z,5.90
2022-10-11T05:51:12.479Z,5.50
2022-10-11T05:53:40.448Z,4.80
2022-10-11T05:56:22.255Z,4.80
2022-10-11T05:58:51.278Z,5.40
2022-10-11T06:01:20.746Z,4.40
2022-10-11T06:03:48.568Z,5.10
2022-10-11T06:06:16.485Z,4.50
2022-10-11T06:08:44.323Z,4.30
2022-10-11T06:11:25.099Z,5.30
2022-10-11T06:13:56.268Z,5.30
2022-10-11T06:16:23.614Z,5.80
2022-10-11T06:18:57.893Z,5.20
2022-10-11T06:21:25.411Z,4.20
2022-10-11T06:23:58.275Z,4.60
2022-10-11T06:26:28.073Z,4.50
2022-10-11T06:28:55.411Z,4.40
2022-10-11T06:31:23.098Z,3.80
2022-10-11T06:33:50.227Z,3.60
2022-10-11T06:36:18.018Z,4.00
2022-10-11T06:38:45.591Z,3.60
2022-10-11T06:41:21.520Z,3.10
2022-10-11T06:43:50.421Z,2.60
2022-10-11T06:46:20.047Z,3.80
2022-10-11T06:48:48.923Z,3.30
2022-10-11T06:51:19.116Z,3.50
2022-10-11T06:53:53.546Z,3.70
2022-10-11T06:56:21.000Z,3.20
2022-10-11T06:58:48.353Z,2.70
2022-10-11T07:01:19.342Z,2.70
2022-10-11T07:03:47.045Z,3.40
2022-10-11T07:06:20.256Z,3.20
2022-10-11T07:08:48.119Z,3.70
2022-10-11T07:11:18.657Z,3.30
2022-10-11T07:13:51.742Z,3.00
2022-10-11T07:16:19.916Z,3.20
2022-10-11T07:18:47.797Z,3.30
2022-10-11T07:21:16.477Z,2.40
2022-10-11T07:23:43.723Z,3.20
2022-10-11T07:26:11.575Z,2.40
2022-10-11T07:28:40.890Z,2.70
2022-10-11T07:31:14.999Z,2.30
2022-10-11T07:33:42.576Z,2.10
2022-10-11T07:36:11.124Z,2.40
2022-10-11T07:38:42.495Z,2.60
2022-10-11T07:41:10.558Z,2.20
2022-10-11T07:43:38.748Z,2.20
2022-10-11T07:46:06.516Z,2.00
2022-10-11T07:48:35.639Z,2.60
2022-10-11T07:51:10.109Z,2.50
2022-10-11T07:53:48.323Z,1.80
2022-10-11T07:56:18.052Z,1.90
2022-10-11T07:58:45.594Z,1.70
2022-10-11T08:01:14.980Z,1.80
2022-10-11T08:03:42.238Z,1.50
2022-10-11T08:06:10.732Z,1.70
2022-10-11T08:08:38.795Z,2.20
2022-10-11T08:11:06.556Z,1.60
2022-10-11T08:13:34.435Z,1.90
2022-10-11T08:16:02.613Z,2.00
2022-10-11T08:18:30.065Z,1.20
2022-10-11T08:20:57.303Z,1.70
2022-10-11T08:23:24.553Z,1.80
2022-10-11T08:25:56.919Z,1.70
2022-10-11T08:28:24.456Z,2.00
2022-10-11T08:30:54.046Z,1.50
2022-10-11T08:33:23.394Z,1.50
2022-10-11T08:35:52.600Z,1.40
2022-10-11T08:38:20.573Z,1.70
2022-10-11T08:40:49.654Z,1.70
2022-10-11T08:43:32.267Z,1.60
2022-10-11T08:46:01.495Z,1.90
2022-10-11T08:48:42.267Z,1.30
2022-10-11T08:51:19.100Z,1.30
2022-10-11T08:53:57.419Z,1.70
2022-10-11T08:56:25.097Z,1.60
2022-10-11T08:59:13.010Z,1.70
2022-10-11T09:01:45.317Z,1.20
2022-10-11T09:04:17.766Z,1.70
2022-10-11T09:07:06.015Z,1.70
2022-10-11T09:09:50.788Z,1.80
2022-10-11T09:12:20.995Z,1.50
2022-10-11T09:15:12.951Z,1.30
2022-10-11T09:18:13.152Z,1.10
2022-10-11T09:20:53.618Z,1.50
2022-10-11T09:23:43.618Z,1.30
2022-10-11T09:26:29.796Z,1.40
2022-10-11T09:29:29.294Z,1.50
2022-10-11T09:31:57.576Z,1.80
2022-10-11T09:34:27.583Z,1.20
2022-10-11T09:37:04.357Z,1.30
2022-10-11T09:39:39.970Z,1.00
2022-10-11T09:42:09.430Z,1.30
2022-10-11T09:44:46.517Z,1.10
2022-10-11T09:47:25.834Z,1.10
2022-10-11T09:50:01.696Z,1.10
2022-10-11T09:52:29.057Z,1.10
2022-10-11T09:54:58.673Z,1.70
2022-10-11T09:57:31.215Z,1.00
2022-10-11T10:00:05.664Z,0.80
2022-10-11T10:02:49.880Z,0.90
2022-10-11T10:05:25.970Z,1.10
2022-10-11T10:08:11.659Z,1.40
2022-10-11T10:10:43.098Z,1.20
2022-10-11T10:13:34.002Z,1.10
2022-10-11T10:16:01.841Z,1.40
2022-10-11T10:18:43.749Z,1.20
2022-10-11T10:21:14.786Z,1.00
2022-10-11T10:23:43.064Z,1.20
2022-10-11T10:26:19.443Z,1.10
2022-10-11T10:29:16.912Z,0.90
2022-10-11T10:32:13.531Z,1.10
2022-10-11T10:34:59.023Z,1.10
2022-10-11T10:37:33.045Z,1.20
2022-10-11T10:40:22.611Z,1.00
2022-10-11T10:42:50.786Z,1.10
2022-10-11T10:45:21.750Z,0.90
2022-10-11T10:48:04.746Z,1.10
2022-10-11T10:50:53.416Z,1.00
2022-10-11T10:53:39.372Z,1.00
2022-10-11T10:56:24.677Z,1.00
2022-10-11T10:59:17.209Z,1.10
2022-10-11T11:02:15.868Z,1.00
2022-10-11T11:05:09.247Z,1.10
2022-10-11T11:07:42.856Z,1.10
2022-10-11T11:10:24.146Z,0.90
2022-10-11T11:13:12.073Z,1.10
2022-10-11T11:15:56.536Z,1.00
2022-10-11T11:18:55.512Z,1.20
2022-10-11T11:21:32.032Z,1.10
2022-10-11T11:24:26.075Z,0.90
2022-10-11T11:26:59.754Z,1.00
2022-10-11T11:29:34.316Z,1.20
2022-10-11T11:32:26.245Z,0.90
2022-10-11T11:35:04.957Z,1.00
2022-10-11T11:37:37.229Z,1.10
2022-10-11T11:40:22.591Z,1.30
2022-10-11T11:42:53.967Z,1.20
2022-10-11T11:45:37.893Z,1.10
2022-10-11T11:48:13.527Z,1.00
2022-10-11T11:50:45.307Z,1.00
2022-10-11T11:53:16.417Z,0.90
2022-10-11T11:55:56.850Z,1.00
2022-10-11T11:58:49.959Z,1.00
2022-10-11T12:01:54.662Z,1.20
2022-10-11T12:04:37.915Z,1.20
2022-10-11T12:07:17.301Z,0.90
2022-10-11T12:09:50.864Z,1.00
2022-10-11T12:12:34.405Z,1.10
2022-10-11T12:15:04.717Z,1.30
2022-10-11T12:17:32.656Z,1.00
2022-10-11T12:20:07.221Z,1.40
2022-10-11T12:22:34.445Z,1.00
2022-10-11T12:25:28.843Z,0.90
2022-10-11T12:28:00.895Z,1.00
2022-10-11T12:30:51.218Z,1.80
2022-10-11T12:33:23.178Z,1.20
2022-10-11T12:35:53.277Z,1.10
2022-10-11T12:38:31.181Z,1.50
2022-10-11T12:41:01.019Z,1.20
2022-10-11T12:43:38.496Z,1.20
2022-10-11T12:46:31.543Z,1.00
2022-10-11T12:49:36.793Z,1.10
2022-10-11T12:52:28.318Z,1.00
2022-10-11T12:55:04.177Z,1.00
2022-10-11T12:57:49.838Z,1.00
2022-10-11T13:00:22.639Z,0.90
2022-10-11T13:02:50.499Z,0.80
2022-10-11T13:05:17.854Z,0.80
2022-10-11T13:07:46.639Z,1.00
2022-10-11T13:10:16.677Z,1.10
2022-10-11T13:12:47.164Z,1.00
2022-10-11T13:15:17.967Z,1.10
2022-10-11T13:17:45.476Z,0.90
2022-10-11T13:20:21.921Z,1.00
2022-10-11T13:22:53.987Z,1.20
2022-10-11T13:25:24.220Z,1.10
2022-10-11T13:27:54.140Z,1.10
2022-10-11T13:30:26.860Z,1.10
2022-10-11T13:32:54.797Z,1.20
2022-10-11T13:35:35.654Z,1.00
2022-10-11T13:38:03.738Z,1.30
2022-10-11T13:40:31.482Z,1.10
2022-10-11T13:42:59.054Z,1.20
2022-10-11T13:45:28.454Z,1.20
2022-10-11T13:47:55.897Z,1.00
2022-10-11T13:50:35.057Z,1.10
2022-10-11T13:53:11.918Z,1.00
2022-10-11T13:55:50.430Z,1.00
2022-10-11T13:58:24.413Z,1.10
2022-10-11T14:01:00.559Z,1.30
2022-10-11T14:03:39.441Z,1.00
2022-10-11T14:06:07.525Z,1.80
2022-10-11T14:08:56.364Z,0.90
2022-10-11T14:11:36.258Z,1.10
2022-10-11T14:14:31.514Z,1.20
2022-10-11T14:17:05.114Z,1.10
2022-10-11T14:19:32.467Z,1.00
2022-10-11T14:21:59.610Z,1.10
2022-10-11T14:24:26.763Z,1.20
2022-10-11T14:26:56.243Z,1.40
2022-10-11T14:29:32.754Z,1.40
2022-10-11T14:32:06.895Z,1.30
2022-10-11T14:34:34.934Z,0.90
2022-10-11T14:37:02.410Z,1.10
2022-10-11T14:39:32.300Z,1.10
2022-10-11T14:41:59.877Z,0.80
2022-10-11T14:44:27.430Z,1.20
2022-10-11T14:46:55.213Z,1.30
2022-10-11T14:49:27.936Z,1.10
2022-10-11T14:51:57.438Z,0.90
2022-10-11T14:54:26.153Z,1.10
2022-10-11T14:56:55.750Z,1.30
2022-10-11T14:59:25.621Z,1.20
2022-10-11T15:01:56.051Z,1.00
2022-10-11T15:04:25.734Z,1.20
2022-10-11T15:06:54.384Z,1.00
2022-10-11T15:09:23.385Z,1.60
2022-10-11T15:11:52.993Z,1.10
2022-10-11T15:14:24.304Z,1.30
2022-10-11T15:16:51.826Z,1.20
2022-10-11T15:19:23.872Z,1.40
2022-10-11T15:21:51.825Z,1.00
2022-10-11T15:24:22.929Z,1.20
2022-10-11T15:26:50.910Z,1.50
2022-10-11T15:29:18.525Z,1.20
2022-10-11T15:31:49.768Z,1.40
2022-10-11T15:34:18.137Z,1.30
2022-10-11T15:36:47.626Z,1.20
2022-10-11T15:39:31.741Z,1.70
2022-10-11T15:42:03.187Z,1.10
2022-10-11T15:44:33.345Z,1.10
2022-10-11T15:47:00.620Z,0.90
2022-10-11T15:49:28.250Z,1.30
2022-10-11T15:51:55.806Z,1.20
2022-10-11T15:54:23.033Z,1.20
2022-10-11T15:56:52.067Z,1.60
2022-10-11T15:59:19.308Z,1.30
2022-10-11T16:01:50.822Z,1.40
2022-10-11T16:04:18.317Z,1.00
2022-10-11T16:06:45.699Z,1.40
2022-10-11T16:09:13.846Z,3.40
2022-10-11T16:11:40.985Z,6.30
2022-10-11T16:14:08.761Z,4.20
2022-10-11T16:16:39.090Z,2.00
2022-10-11T16:19:09.319Z,2.40
2022-10-11T16:21:36.476Z,1.80
2022-10-11T16:24:07.695Z,1.70
2022-10-11T16:26:34.950Z,1.60
2022-10-11T16:29:02.316Z,1.60
2022-10-11T16:31:29.576Z,1.40
2022-10-11T16:33:57.318Z,1.70
2022-10-11T16:36:36.752Z,2.00
2022-10-11T16:39:11.621Z,1.80
2022-10-11T16:41:39.359Z,2.10
2022-10-11T16:44:07.117Z,2.10
2022-10-11T16:46:35.098Z,1.80
2022-10-11T16:49:02.545Z,1.40
2022-10-11T16:51:30.007Z,1.60
2022-10-11T16:53:57.365Z,1.40
2022-10-11T16:56:25.525Z,1.90
2022-10-11T16:58:53.651Z,1.60
2022-10-11T17:01:21.387Z,1.40
2022-10-11T17:03:50.156Z,1.50
2022-10-11T17:06:17.812Z,1.50
2022-10-11T17:08:45.276Z,1.90
2022-10-11T17:11:13.136Z,1.70
2022-10-11T17:13:40.389Z,1.70
2022-10-11T17:16:08.707Z,1.90
2022-10-11T17:18:37.244Z,2.50
2022-10-11T17:21:09.316Z,2.00
2022-10-11T17:23:37.298Z,2.40
2022-10-11T17:26:10.948Z,2.00
2022-10-11T17:28:39.540Z,2.10
2022-10-11T17:31:08.555Z,3.90
2022-10-11T17:33:36.960Z,2.70
2022-10-11T17:36:35.135Z,1.90
2022-10-11T17:39:09.192Z,2.40
2022-10-11T17:41:37.700Z,2.40
2022-10-11T17:44:06.296Z,2.20
2022-10-11T17:46:33.974Z,6.20
2022-10-11T17:49:05.113Z,5.40
2022-10-11T17:51:33.597Z,6.70
2022-10-11T17:54:01.548Z,4.90
2022-10-11T17:56:35.026Z,3.50
2022-10-11T17:59:04.749Z,4.00
2022-10-11T18:01:33.716Z,3.60
2022-10-11T18:04:04.578Z,3.10
2022-10-11T18:06:34.900Z,2.40
2022-10-11T18:09:03.805Z,1.90
2022-10-11T18:11:31.999Z,2.20
2022-10-11T18:13:59.735Z,2.90
2022-10-11T18:16:29.970Z,2.00
2022-10-11T18:18:58.133Z,1.60
2022-10-11T18:21:34.298Z,1.80
2022-10-11T18:24:06.001Z,1.80
2022-10-11T18:26:34.238Z,1.90
2022-10-11T18:29:02.515Z,2.30
2022-10-11T18:31:34.486Z,1.90
2022-10-11T18:34:03.475Z,2.20
2022-10-11T18:36:35.056Z,3.40
2022-10-11T18:39:05.653Z,2.80
2022-10-11T18:41:36.128Z,3.20
2022-10-11T18:44:06.280Z,2.90
2022-10-11T18:46:33.956Z,2.90
2022-10-11T18:49:02.895Z,2.90
2022-10-11T18:51:34.010Z,3.10
2022-10-11T18:54:03.574Z,3.30
2022-10-11T18:56:33.013Z,3.10
2022-10-11T18:59:00.777Z,3.30
2022-10-11T19:01:31.168Z,4.20
2022-10-11T19:04:00.107Z,3.80
2022-10-11T19:06:31.036Z,5.00
2022-10-11T19:09:09.639Z,6.20
2022-10-11T19:11:38.001Z,5.70
2022-10-11T19:14:08.778Z,6.70
2022-10-11T19:16:40.525Z,6.30
2022-10-11T19:19:08.493Z,6.70
2022-10-11T19:21:35.931Z,6.80
2022-10-11T19:24:03.397Z,6.10
2022-10-11T19:26:34.156Z,6.00
2022-10-11T19:29:04.905Z,5.50
2022-10-11T19:31:35.694Z,6.10
2022-10-11T19:34:04.274Z,7.10
2022-10-11T19:36:36.412Z,6.70
2022-10-11T19:39:05.578Z,7.30
2022-10-11T19:41:33.193Z,7.80
2022-10-11T19:44:01.116Z,10.00
2022-10-11T19:49:21.676Z,10.00
2022-10-11T19:51:50.179Z,10.00
2022-10-11T19:54:17.726Z,9.50
2022-10-11T19:56:46.055Z,9.00
2022-10-11T19:59:14.277Z,9.30
2022-10-11T20:01:42.096Z,8.80
2022-10-11T20:04:33.237Z,8.70
2022-10-11T20:07:00.809Z,10.00
2022-10-11T20:09:30.258Z,10.50
2022-10-11T20:11:59.519Z,10.30
2022-10-11T20:14:27.989Z,12.10
2022-10-11T20:16:55.557Z,11.70
2022-10-11T20:19:27.871Z,12.00
2022-10-11T20:21:58.052Z,11.00
2022-10-11T20:24:28.160Z,11.50
2022-10-11T20:26:56.832Z,10.90
2022-10-11T20:29:25.749Z,11.40
2022-10-11T20:31:53.816Z,11.20
2022-10-11T20:34:21.156Z,11.20
2022-10-11T20:36:49.379Z,11.30
2022-10-11T20:39:17.402Z,10.70
2022-10-11T20:41:44.853Z,11.30
2022-10-11T20:44:13.839Z,10.50
2022-10-11T20:46:41.234Z,11.20
2022-10-11T20:49:11.121Z,12.40
2022-10-11T20:51:40.538Z,11.80
2022-10-11T20:54:09.318Z,10.30
2022-10-11T20:56:36.976Z,10.30
2022-10-11T20:59:05.662Z,10.80
2022-10-11T21:01:35.950Z,10.50
2022-10-11T21:04:04.381Z,10.60
2022-10-11T21:06:32.946Z,10.30
2022-10-11T21:09:01.269Z,10.00
2022-10-11T21:11:31.643Z,10.20
2022-10-11T21:14:01.779Z,9.80
2022-10-11T21:16:29.645Z,9.90
2022-10-11T21:18:58.826Z,9.20
2022-10-11T21:21:27.996Z,8.90
2022-10-11T21:24:00.726Z,10.40
2022-10-11T21:26:31.567Z,11.90
2022-10-11T21:29:02.188Z,9.80
2022-10-11T21:31:34.075Z,11.00
2022-10-11T21:34:03.567Z,11.80
2022-10-11T21:36:31.035Z,11.10
2022-10-11T21:38:58.791Z,10.80
2022-10-11T21:41:31.590Z,11.10
2022-10-11T21:43:59.603Z,10.20
2022-10-11T21:46:47.980Z,10.80
2022-10-11T21:49:17.367Z,9.30
2022-10-11T21:51:46.208Z,10.10
2022-10-11T21:54:14.029Z,10.80
2022-10-11T21:56:41.586Z,10.60
2022-10-11T21:59:12.291Z,10.40
2022-10-11T22:01:41.311Z,10.60
2022-10-11T22:04:09.436Z,10.10
2022-10-11T22:06:40.352Z,10.50
2022-10-11T22:09:08.729Z,11.20
2022-10-11T22:11:36.656Z,10.40
2022-10-11T22:14:05.556Z,9.80
2022-10-11T22:16:34.551Z,10.40
2022-10-11T22:19:02.350Z,10.30
2022-10-11T22:21:30.268Z,10.40
2022-10-11T22:23:57.928Z,10.20
2022-10-11T22:26:28.383Z,9.80
2022-10-11T22:28:55.871Z,9.70
2022-10-11T22:31:24.197Z,9.80
2022-10-11T22:34:00.246Z,10.10
2022-10-11T22:36:28.846Z,10.80
2022-10-11T22:38:56.313Z,11.10
2022-10-11T22:41:24.078Z,11.30
2022-10-11T22:43:51.634Z,10.70
2022-10-11T22:46:19.196Z,11.00
2022-10-11T22:48:46.432Z,10.30
2022-10-11T22:51:14.745Z,11.00
2022-10-11T22:53:42.175Z,10.10
2022-10-11T22:56:11.035Z,10.30
2022-10-11T22:58:38.526Z,12.30
2022-10-11T23:01:14.905Z,10.50
2022-10-11T23:03:42.795Z,10.70
2022-10-11T23:06:11.338Z,10.90
2022-10-11T23:08:38.868Z,10.30
2022-10-11T23:11:07.429Z,9.30
2022-10-11T23:13:35.255Z,10.20
2022-10-11T23:16:12.947Z,9.10
2022-10-11T23:18:40.204Z,9.10
2022-10-11T23:21:08.122Z,9.80
2022-10-11T23:23:36.147Z,10.20
2022-10-11T23:26:13.003Z,10.10
2022-10-11T23:28:41.037Z,9.70
2022-10-11T23:31:11.047Z,9.10
2022-10-11T23:33:38.551Z,9.80
2022-10-11T23:36:06.618Z,9.60
2022-10-11T23:38:34.004Z,8.90
2022-10-11T23:41:01.513Z,8.90
2022-10-11T23:43:29.070Z,9.80
2022-10-11T23:45:56.649Z,10.30
2022-10-11T23:48:23.987Z,9.90
2022-10-11T23:50:51.239Z,9.50
2022-10-11T23:53:18.699Z,9.10
2022-10-11T23:55:46.064Z,9.10
2022-10-11T23:58:13.536Z,9.20
